Time;durP1;ratioP1;P1;durP2;ratioP2;P2;SDS_P1;SDS_P2;PMS_P1;PMS_P2;Temp;Humidity;BMP_temperature;BMP_pressure;BME280_temperature;BME280_humidity;BME280_pressure;Samples;Min_cycle;Max_cycle;Signal;HPM_P1;HPM_P2
2022/07/17 00:02:19;;;;;;;1.40;0.85;;;;;;;22.53;33.96;100164.22;4387389;32;34439;-79
2022/07/17 00:04:49;;;;;;;0.93;0.50;;;;;;;22.52;34.39;100166.91;4388010;32;33432;-80
2022/07/17 00:07:18;;;;;;;0.98;0.60;;;;;;;22.45;34.90;100162.94;4388758;32;33782;-81
2022/07/17 00:09:50;;;;;;;1.52;0.77;;;;;;;22.56;33.93;100174.59;4392368;32;33406;-80
2022/07/17 00:12:19;;;;;;;0.88;0.60;;;;;;;22.07;34.40;100171.09;4387821;32;33947;-80
2022/07/17 00:14:48;;;;;;;1.90;0.77;;;;;;;21.60;34.77;100177.06;4387234;32;34621;-81
2022/07/17 00:17:22;;;;;;;0.50;0.50;;;;;;;21.91;34.36;100181.62;4387618;32;33189;-79
2022/07/17 00:19:54;;;;;;;1.00;0.60;;;;;;;21.77;34.27;100176.19;4373748;32;32524;-80
2022/07/17 00:22:23;;;;;;;0.85;0.60;;;;;;;21.86;34.38;100179.22;4377345;32;34135;-80
2022/07/17 00:24:53;;;;;;;2.10;0.77;;;;;;;21.74;34.90;100188.63;4374115;32;33869;-80
2022/07/17 00:27:22;;;;;;;1.08;0.68;;;;;;;21.63;34.62;100185.69;4373986;32;34100;-80
2022/07/17 00:29:57;;;;;;;0.43;0.43;;;;;;;21.90;34.21;100179.91;4376301;32;33812;-80
2022/07/17 00:32:27;;;;;;;1.48;0.80;;;;;;;21.95;34.09;100172.59;4377247;32;33234;-80
2022/07/17 00:34:58;;;;;;;1.77;0.80;;;;;;;22.00;34.15;100182.94;4378933;32;33974;-80
2022/07/17 00:37:27;;;;;;;0.43;0.43;;;;;;;22.02;33.89;100187.19;4379040;32;34081;-81
2022/07/17 00:39:59;;;;;;;1.02;0.52;;;;;;;22.03;34.07;100188.91;4378717;32;33364;-81
2022/07/17 00:42:28;;;;;;;2.40;0.70;;;;;;;21.97;34.23;100197.16;4392114;32;33847;-81
2022/07/17 00:45:02;;;;;;;0.82;0.60;;;;;;;22.07;34.21;100190.44;4388842;32;34739;-80
2022/07/17 00:47:32;;;;;;;0.60;0.60;;;;;;;21.91;34.29;100195.66;4389230;32;33869;-81
2022/07/17 00:50:04;;;;;;;0.80;0.77;;;;;;;22.08;33.64;100186.00;4394308;32;33824;-79
2022/07/17 00:52:33;;;;;;;1.58;0.70;;;;;;;21.82;34.29;100203.22;4389041;32;34686;-79
2022/07/17 00:55:03;;;;;;;0.95;0.52;;;;;;;22.10;34.13;100200.84;4389605;32;34183;-80
2022/07/17 00:57:56;;;;;;;2.85;0.77;;;;;;;21.99;34.37;100195.28;4389188;32;34307;-80
2022/07/17 01:00:28;;;;;;;1.45;0.70;;;;;;;21.93;35.45;100207.00;4389274;32;32698;-79
2022/07/17 01:02:59;;;;;;;0.35;0.35;;;;;;;21.93;35.59;100211.44;4388623;32;34577;-80
2022/07/17 01:05:28;;;;;;;0.60;0.60;;;;;;;21.97;35.52;100210.37;4387653;32;33094;-80
2022/07/17 01:07:57;;;;;;;0.95;0.60;;;;;;;22.01;35.70;100208.41;4373679;32;33955;-79
2022/07/17 01:10:27;;;;;;;1.50;0.65;;;;;;;21.81;36.56;100207.66;4374065;32;33435;-79
2022/07/17 01:12:59;;;;;;;5.40;0.70;;;;;;;21.70;36.77;100213.50;4373818;32;32911;-78
2022/07/17 01:15:35;;;;;;;2.15;0.80;;;;;;;21.96;36.05;100213.94;4373544;32;33864;-80
2022/07/17 01:18:10;;;;;;;1.50;0.62;;;;;;;21.88;36.61;100218.75;4374324;32;35011;-78
2022/07/17 01:20:42;;;;;;;1.00;0.68;;;;;;;21.72;36.92;100216.94;4378882;32;33508;-78
2022/07/17 01:23:20;;;;;;;;;;;;;;;21.69;37.18;100214.41;4374248;32;33817;-78
2022/07/17 01:25:48;;;;;;;1.58;0.82;;;;;;;21.55;37.50;100213.41;4373753;32;34233;-78
2022/07/17 01:28:20;;;;;;;1.67;0.70;;;;;;;21.65;37.51;100209.38;4373884;32;33375;-78
2022/07/17 01:30:50;;;;;;;0.45;0.45;;;;;;;21.43;38.11;100214.88;4373564;32;33416;-78
2022/07/17 01:33:23;;;;;;;2.10;0.90;;;;;;;21.06;38.32;100214.00;4374509;32;34867;-79
2022/07/17 01:35:52;;;;;;;1.02;0.70;;;;;;;21.23;38.20;100221.97;4377370;32;34024;-78
2022/07/17 01:38:28;;;;;;;1.95;0.80;;;;;;;21.27;38.30;100226.16;4359922;32;34103;-79
2022/07/17 01:41:03;;;;;;;1.02;0.70;;;;;;;21.09;38.39;100227.03;4382095;32;35357;-78
2022/07/17 01:43:32;;;;;;;0.57;0.57;;;;;;;21.11;38.55;100230.47;4389003;32;33994;-79
2022/07/17 01:46:03;;;;;;;0.82;0.60;;;;;;;20.94;38.52;100230.44;4388442;32;33790;-78
2022/07/17 01:48:32;;;;;;;0.80;0.80;;;;;;;20.69;39.27;100226.31;4389321;32;33898;-78
2022/07/17 01:51:05;;;;;;;1.75;1.12;;;;;;;20.72;39.59;100230.59;4393435;32;33136;-79
2022/07/17 01:53:36;;;;;;;0.40;0.40;;;;;;;20.68;39.25;100229.84;4390747;32;34415;-79
2022/07/17 01:56:08;;;;;;;1.12;0.80;;;;;;;20.70;39.48;100229.78;4388879;32;34529;-78
2022/07/17 01:58:37;;;;;;;1.33;0.90;;;;;;;20.60;39.80;100229.38;4388340;32;34243;-78
2022/07/17 02:01:07;;;;;;;0.95;0.80;;;;;;;20.59;39.70;100241.69;4388621;32;33416;-77
2022/07/17 02:03:37;;;;;;;1.65;0.85;;;;;;;20.60;39.51;100239.91;4393347;32;33832;-77
2022/07/17 02:06:09;;;;;;;2.12;0.85;;;;;;;20.62;39.90;100243.34;4388403;32;34470;-77
2022/07/17 02:08:40;;;;;;;2.15;0.90;;;;;;;20.55;39.74;100244.50;4388586;32;34673;-79
2022/07/17 02:11:10;;;;;;;1.20;0.95;;;;;;;20.29;39.97;100248.31;4389092;32;34830;-79
2022/07/17 02:13:38;;;;;;;1.13;0.83;;;;;;;20.31;40.27;100246.47;4389020;32;33885;-80
2022/07/17 02:16:08;;;;;;;0.88;0.80;;;;;;;20.44;39.91;100245.88;4376824;32;33932;-79
2022/07/17 02:18:39;;;;;;;1.75;0.62;;;;;;;20.46;39.67;100251.03;4378444;32;34814;-80
2022/07/17 02:21:08;;;;;;;0.75;0.70;;;;;;;20.24;40.06;100253.78;4374075;32;33456;-79
2022/07/17 02:23:42;;;;;;;1.08;0.80;;;;;;;20.35;39.61;100256.81;4373551;32;33886;-80
2022/07/17 02:26:14;;;;;;;1.40;0.65;;;;;;;20.26;39.84;100265.13;4373602;32;33159;-80
2022/07/17 02:28:44;;;;;;;0.60;0.60;;;;;;;20.14;40.29;100268.28;4372925;32;34027;-80
2022/07/17 02:31:16;;;;;;;0.60;0.55;;;;;;;20.02;40.57;100265.25;4378381;32;33750;-79
2022/07/17 02:33:45;;;;;;;1.12;0.82;;;;;;;20.14;40.48;100276.19;4373089;32;33955;-79
2022/07/17 02:36:14;;;;;;;1.83;0.77;;;;;;;20.21;40.10;100275.00;4374094;32;33905;-79
2022/07/17 02:38:52;;;;;;;0.68;0.60;;;;;;;20.14;40.44;100273.56;4372974;32;33690;-80
2022/07/17 02:41:22;;;;;;;1.20;0.80;;;;;;;19.82;40.93;100260.84;4384406;32;34416;-79
2022/07/17 02:43:51;;;;;;;1.08;0.65;;;;;;;20.08;39.93;100273.81;4387771;32;34708;-79
2022/07/17 02:46:21;;;;;;;1.33;0.82;;;;;;;19.76;40.49;100281.31;4392855;32;35177;-79
2022/07/17 02:48:49;;;;;;;1.48;0.85;;;;;;;19.82;40.89;100276.66;4387248;32;34098;-78
2022/07/17 02:51:22;;;;;;;0.98;0.70;;;;;;;19.65;41.13;100278.25;4388263;32;33937;-79
2022/07/17 02:53:52;;;;;;;0.50;0.50;;;;;;;19.55;40.95;100275.13;4388541;32;33487;-78
2022/07/17 02:56:25;;;;;;;0.87;0.70;;;;;;;19.48;41.41;100284.19;4375083;32;33952;-80
2022/07/17 02:58:54;;;;;;;0.77;0.62;;;;;;;19.55;41.22;100283.03;4377863;32;34243;-78
2022/07/17 03:01:23;;;;;;;1.30;0.80;;;;;;;19.44;41.27;100282.59;4375647;32;33666;-79
2022/07/17 03:03:53;;;;;;;0.70;0.70;;;;;;;19.62;40.81;100285.34;4374750;32;34031;-80
2022/07/17 03:06:22;;;;;;;0.60;0.60;;;;;;;19.57;41.32;100287.31;4376188;32;33977;-78
2022/07/17 03:08:56;;;;;;;0.95;0.70;;;;;;;19.67;40.88;100284.28;4375565;32;33985;-79
2022/07/17 03:11:28;;;;;;;0.70;0.70;;;;;;;19.46;41.56;100289.50;4374492;32;34023;-78
2022/07/17 03:13:58;;;;;;;1.62;0.95;;;;;;;19.54;41.00;100287.41;4377844;32;33945;-78
2022/07/17 03:16:29;;;;;;;0.73;0.70;;;;;;;19.52;41.14;100294.53;4373999;32;34040;-79
2022/07/17 03:18:58;;;;;;;0.98;0.77;;;;;;;19.65;40.30;100294.87;4372923;32;34075;-80
2022/07/17 03:21:30;;;;;;;1.00;0.70;;;;;;;19.51;40.57;100297.22;4373056;32;34376;-78
2022/07/17 03:24:00;;;;;;;2.12;0.98;;;;;;;19.46;40.86;100304.44;4373009;32;33893;-79
2022/07/17 03:26:29;;;;;;;1.73;0.88;;;;;;;19.45;41.08;100302.72;4377822;32;33065;-78
2022/07/17 03:28:59;;;;;;;2.12;1.20;;;;;;;19.15;41.97;100311.75;4372581;32;33135;-79
2022/07/17 03:31:30;;;;;;;0.60;0.60;;;;;;;19.38;41.98;100317.91;4372857;32;34387;-79
2022/07/17 03:34:00;;;;;;;2.05;0.93;;;;;;;19.10;42.10;100320.75;4373261;32;34644;-79
2022/07/17 03:36:31;;;;;;;0.60;0.60;;;;;;;19.36;41.81;100317.97;4372872;32;34031;-79
2022/07/17 03:39:05;;;;;;;2.50;0.98;;;;;;;19.66;40.69;100330.81;4373083;32;33875;-79
2022/07/17 03:41:37;;;;;;;0.60;0.60;;;;;;;19.53;41.18;100325.19;4390072;32;33368;-79
2022/07/17 03:44:06;;;;;;;2.55;1.00;;;;;;;19.77;40.01;100330.41;4388613;32;33834;-80
2022/07/17 03:46:36;;;;;;;2.62;0.75;;;;;;;19.37;41.50;100324.06;4389948;32;36193;-78
2022/07/17 03:49:24;;;;;;;0.88;0.70;;;;;;;19.31;41.63;100332.22;4391608;32;35818;-80
2022/07/17 03:51:53;;;;;;;0.68;0.68;;;;;;;19.42;41.17;100334.44;4392007;32;33410;-80
2022/07/17 03:54:30;;;;;;;0.95;0.65;;;;;;;19.35;41.40;100336.44;4392582;32;34761;-80
2022/07/17 03:57:03;;;;;;;0.62;0.62;;;;;;;19.28;41.39;100334.97;4391910;32;34386;-79
2022/07/17 03:59:31;;;;;;;0.77;0.68;;;;;;;19.43;41.64;100337.00;4389668;32;33751;-80
2022/07/17 04:02:06;;;;;;;1.00;0.65;;;;;;;19.35;41.66;100341.69;4389416;32;34139;-80
2022/07/17 04:04:35;;;;;;;1.12;0.90;;;;;;;19.28;42.21;100350.75;4387738;32;34766;-79
2022/07/17 04:07:05;;;;;;;1.58;0.70;;;;;;;19.56;42.31;100359.28;4387881;32;34112;-80
2022/07/17 04:09:38;;;;;;;1.20;0.75;;;;;;;19.31;41.79;100354.12;4391197;32;33940;-81
2022/07/17 04:12:11;;;;;;;0.75;0.70;;;;;;;19.54;41.71;100357.62;4393012;32;32920;-80
2022/07/17 04:14:40;;;;;;;0.95;0.60;;;;;;;19.44;41.49;100359.75;4387557;32;34076;-79
2022/07/17 04:17:17;;;;;;;0.80;0.70;;;;;;;19.59;41.50;100353.03;4387794;32;33834;-79
2022/07/17 04:19:53;;;;;;;0.75;0.60;;;;;;;19.64;40.96;100360.75;4387552;32;34377;-79
2022/07/17 04:22:22;;;;;;;1.23;0.88;;;;;;;19.48;41.47;100364.00;4387415;32;33310;-79
2022/07/17 04:24:54;;;;;;;0.60;0.60;;;;;;;19.72;40.85;100358.72;4386107;32;33913;-79
2022/07/17 04:27:26;;;;;;;0.80;0.80;;;;;;;19.52;41.05;100368.22;4377294;32;33803;-79
2022/07/17 04:30:02;;;;;;;3.08;1.60;;;;;;;19.17;42.13;100366.94;4372897;32;36130;-80
2022/07/17 04:32:31;;;;;;;1.23;0.80;;;;;;;19.69;40.88;100364.09;4373335;32;33405;-80
2022/07/17 04:35:02;;;;;;;1.12;0.70;;;;;;;19.51;40.75;100371.75;4375548;32;33962;-80
2022/07/17 04:37:36;;;;;;;1.00;0.73;;;;;;;19.13;41.80;100376.72;4372801;32;33762;-79
2022/07/17 04:40:08;;;;;;;0.80;0.80;;;;;;;19.30;41.61;100367.31;4379901;32;34113;-79
2022/07/17 04:42:40;;;;;;;1.08;0.88;;;;;;;19.51;41.19;100378.81;4388654;32;33656;-78
2022/07/17 04:45:10;;;;;;;1.12;0.70;;;;;;;19.69;40.82;100379.87;4386979;32;34603;-79
2022/07/17 04:47:39;;;;;;;1.25;0.77;;;;;;;19.77;40.88;100381.28;4388103;32;35596;-80
2022/07/17 04:50:09;;;;;;;0.82;0.70;;;;;;;19.66;40.88;100387.88;4386625;32;34190;-78
2022/07/17 04:52:38;;;;;;;1.27;0.75;;;;;;;19.66;40.66;100387.88;4386740;32;34636;-79
2022/07/17 04:55:12;;;;;;;0.88;0.55;;;;;;;20.04;39.78;100387.22;4391490;32;33760;-78
2022/07/17 04:57:42;;;;;;;0.62;0.50;;;;;;;20.30;39.46;100393.19;4386867;32;34536;-80
2022/07/17 05:00:12;;;;;;;2.20;0.60;;;;;;;20.61;38.06;100387.47;4374744;32;33217;-80
2022/07/17 05:02:43;;;;;;;1.00;0.62;;;;;;;21.43;36.68;100391.72;4386659;32;33063;-80
2022/07/17 05:05:12;;;;;;;0.50;0.50;;;;;;;22.03;35.77;100397.63;4387247;32;33812;-79
2022/07/17 05:07:48;;;;;;;1.85;0.68;;;;;;;22.71;34.34;100391.56;4391501;32;33673;-81
2022/07/17 05:10:21;;;;;;;0.77;0.50;;;;;;;22.43;34.45;100397.47;4382612;32;33810;-80
2022/07/17 05:12:55;;;;;;;1.27;0.68;;;;;;;23.00;33.69;100400.66;4374089;32;33342;-80
2022/07/17 05:15:31;;;;;;;1.35;0.70;;;;;;;23.43;32.46;100404.47;4374011;32;33901;-80
2022/07/17 05:18:10;;;;;;;0.50;0.47;;;;;;;23.66;32.50;100404.16;4375106;32;34753;-79
2022/07/17 05:20:40;;;;;;;0.55;0.52;;;;;;;23.94;32.33;100404.28;4374190;32;34935;-80
2022/07/17 05:23:12;;;;;;;1.30;0.80;;;;;;;23.64;32.95;100410.37;4378500;32;32734;-80
2022/07/17 05:25:44;;;;;;;1.25;0.70;;;;;;;23.50;32.88;100406.78;4378522;32;34285;-79
2022/07/17 05:28:12;;;;;;;;;;;;;;;23.47;33.03;100405.16;4374245;32;33901;-79
2022/07/17 05:30:41;;;;;;;0.62;0.50;;;;;;;23.03;33.81;100410.22;4373926;32;34167;-79
2022/07/17 05:33:16;;;;;;;0.80;0.68;;;;;;;22.86;34.08;100403.13;4374357;32;34395;-80
2022/07/17 05:35:45;;;;;;;0.77;0.57;;;;;;;22.58;34.71;100408.09;4373525;32;33927;-80
2022/07/17 05:38:14;;;;;;;1.35;0.68;;;;;;;22.32;35.67;100413.84;4378811;32;33570;-81
2022/07/17 05:40:46;;;;;;;0.80;0.50;;;;;;;22.11;35.42;100413.13;4381064;32;34122;-80
2022/07/17 05:43:17;;;;;;;1.90;0.60;;;;;;;22.05;36.12;100416.06;4388897;32;33710;-80
2022/07/17 05:45:46;;;;;;;0.73;0.43;;;;;;;21.91;37.06;100409.66;4388748;32;34658;-80
2022/07/17 05:48:18;;;;;;;0.70;0.50;;;;;;;22.10;36.26;100408.75;4388811;32;34782;-80
2022/07/17 05:50:48;;;;;;;0.52;0.50;;;;;;;21.98;36.49;100415.50;4390893;32;33946;-79
2022/07/17 05:53:23;;;;;;;1.02;0.70;;;;;;;21.89;36.81;100414.16;4393511;32;34439;-79
2022/07/17 05:55:53;;;;;;;0.98;0.50;;;;;;;21.97;37.17;100410.31;4385504;32;33900;-80
2022/07/17 05:58:22;;;;;;;0.60;0.60;;;;;;;22.10;36.55;100417.53;4373844;32;33842;-80
2022/07/17 06:00:51;;;;;;;0.62;0.55;;;;;;;21.72;37.07;100417.63;4373914;32;34548;-79
2022/07/17 06:03:23;;;;;;;1.20;0.90;;;;;;;21.41;37.37;100414.72;4373637;32;34394;-80
2022/07/17 06:05:52;;;;;;;0.75;0.60;;;;;;;21.36;37.71;100408.75;4378261;32;33784;-79
2022/07/17 06:08:27;;;;;;;0.43;0.43;;;;;;;21.82;36.81;100420.69;4373438;32;33770;-79
2022/07/17 06:10:57;;;;;;;0.50;0.50;;;;;;;21.54;36.51;100420.28;4373820;32;34827;-79
2022/07/17 06:13:26;;;;;;;0.77;0.60;;;;;;;21.25;37.26;100415.38;4374212;32;33524;-78
2022/07/17 06:15:58;;;;;;;0.68;0.50;;;;;;;21.55;34.95;100417.53;4374403;32;33879;-79
2022/07/17 06:18:28;;;;;;;0.40;0.40;;;;;;;21.30;36.94;100418.66;4375250;32;33786;-79
2022/07/17 06:20:57;;;;;;;2.67;1.00;;;;;;;21.10;36.71;100431.91;4377090;32;34787;-79
2022/07/17 06:23:32;;;;;;;0.50;0.40;;;;;;;21.26;36.36;100426.78;4374328;32;34467;-80
2022/07/17 06:26:03;;;;;;;1.00;0.62;;;;;;;21.09;36.63;100427.56;4374159;32;34897;-80
2022/07/17 06:28:32;;;;;;;;;;;;;;;21.35;36.32;100425.53;4374113;32;34239;-80
2022/07/17 06:31:01;;;;;;;0.88;0.68;;;;;;;21.34;36.59;100424.66;4373681;32;35056;-80
2022/07/17 06:33:39;;;;;;;1.85;0.50;;;;;;;21.44;36.15;100428.62;4378239;32;34521;-80
2022/07/17 06:36:12;;;;;;;1.77;0.85;;;;;;;21.32;35.95;100426.53;4372755;32;33525;-79
2022/07/17 06:38:41;;;;;;;0.82;0.55;;;;;;;21.34;35.77;100429.94;4372847;32;34010;-80
2022/07/17 06:41:18;;;;;;;0.55;0.50;;;;;;;21.12;36.29;100445.03;4383134;32;34768;-79
2022/07/17 06:43:47;;;;;;;0.80;0.70;;;;;;;21.57;35.75;100441.25;4388445;32;34307;-81
2022/07/17 06:46:19;;;;;;;0.70;0.45;;;;;;;21.95;34.99;100442.91;4388339;32;34044;-79
2022/07/17 06:48:51;;;;;;;2.15;0.60;;;;;;;21.61;34.19;100441.03;4393172;32;34672;-80
2022/07/17 06:51:29;;;;;;;1.87;0.70;;;;;;;21.36;36.07;100435.12;4389786;32;35498;-80
2022/07/17 06:54:01;;;;;;;1.20;0.70;;;;;;;21.20;35.80;100437.63;4388028;32;33125;-80
2022/07/17 06:56:31;;;;;;;1.17;0.65;;;;;;;21.67;34.57;100446.03;4388263;32;33833;-80
2022/07/17 06:59:06;;;;;;;1.95;0.73;;;;;;;21.74;35.01;100443.94;4389009;32;34025;-80
2022/07/17 07:01:36;;;;;;;5.18;0.50;;;;;;;21.97;34.64;100431.44;4390050;32;34192;-79
2022/07/17 07:04:14;;;;;;;0.82;0.50;;;;;;;21.73;34.35;100437.81;4393044;32;33733;-80
2022/07/17 07:06:46;;;;;;;0.65;0.57;;;;;;;21.95;32.09;100442.06;4389280;32;33917;-80
2022/07/17 07:09:15;;;;;;;1.73;0.68;;;;;;;21.89;31.08;100431.78;4390568;32;33776;-79
2022/07/17 07:11:50;;;;;;;0.73;0.60;;;;;;;21.74;31.07;100441.31;4391017;32;34693;-79
2022/07/17 07:14:19;;;;;;;4.68;0.40;;;;;;;22.21;30.56;100443.47;4390047;32;34347;-79
2022/07/17 07:16:48;;;;;;;1.67;0.50;;;;;;;22.28;31.43;100434.31;4389256;32;33839;-81
2022/07/17 07:19:17;;;;;;;0.47;0.47;;;;;;;22.41;29.99;100442.47;4392756;32;33892;-80
2022/07/17 07:21:49;;;;;;;0.85;0.55;;;;;;;22.40;30.89;100448.72;4389007;32;34893;-79
2022/07/17 07:24:19;;;;;;;0.40;0.40;;;;;;;22.26;30.15;100440.59;4388229;32;33478;-79
2022/07/17 07:26:52;;;;;;;2.05;0.80;;;;;;;21.94;29.08;100443.84;4388160;32;34012;-81
2022/07/17 07:29:21;;;;;;;0.55;0.45;;;;;;;22.39;28.61;100446.97;4388086;32;35097;-79
2022/07/17 07:31:51;;;;;;;0.52;0.40;;;;;;;22.52;30.32;100453.38;4392490;32;34255;-80
2022/07/17 07:34:23;;;;;;;0.30;0.30;;;;;;;22.84;29.35;100457.94;4387756;32;33691;-79
2022/07/17 07:36:55;;;;;;;0.40;0.40;;;;;;;22.67;29.33;100443.78;4387749;32;33930;-78
2022/07/17 07:39:26;;;;;;;4.57;0.62;;;;;;;22.87;28.42;100448.03;4388025;32;34841;-79
2022/07/17 07:41:58;;;;;;;2.00;0.57;;;;;;;22.70;28.28;100448.91;4388047;32;34948;-78
2022/07/17 07:44:27;;;;;;;0.65;0.40;;;;;;;22.51;29.35;100450.78;4388281;32;34416;-77
2022/07/17 07:47:00;;;;;;;3.50;0.65;;;;;;;22.93;27.88;100445.09;4392750;32;34136;-79
2022/07/17 07:49:29;;;;;;;0.62;0.40;;;;;;;22.64;28.40;100440.44;4388123;32;34105;-79
2022/07/17 07:52:07;;;;;;;0.43;0.35;;;;;;;23.21;27.99;100446.28;4390925;32;34477;-78
2022/07/17 07:54:39;;;;;;;3.03;0.40;;;;;;;22.99;27.41;100452.72;4392354;32;33814;-77
2022/07/17 07:57:11;;;;;;;0.40;0.40;;;;;;;22.84;27.45;100450.84;4392698;32;33970;-78
2022/07/17 07:59:41;;;;;;;1.48;0.75;;;;;;;22.50;27.73;100454.37;4391371;32;35706;-78
2022/07/17 08:02:11;;;;;;;;;;;;;;;22.85;27.70;100455.19;4393056;32;34670;-78
2022/07/17 08:04:40;;;;;;;0.82;0.60;;;;;;;22.79;28.40;100456.38;4375113;32;33554;-79
2022/07/17 08:07:11;;;;;;;2.05;0.62;;;;;;;22.87;27.95;100458.63;4373053;32;33788;-78
2022/07/17 08:09:45;;;;;;;3.90;0.55;;;;;;;23.07;28.76;100446.19;4380415;32;34770;-78
2022/07/17 08:12:14;;;;;;;2.15;0.40;;;;;;;22.96;27.76;100455.50;4387473;32;34597;-78
2022/07/17 08:15:14;;;;;;;0.75;0.55;;;;;;;22.88;29.54;100449.78;4388104;32;33612;-76
2022/07/17 08:17:44;;;;;;;0.50;0.40;;;;;;;22.53;30.04;100459.50;4392008;32;34781;-77
2022/07/17 08:20:17;;;;;;;0.70;0.43;;;;;;;22.76;30.28;100460.97;4387776;32;34681;-78
2022/07/17 08:22:49;;;;;;;0.50;0.50;;;;;;;23.33;29.14;100463.31;4387604;32;34042;-78
2022/07/17 08:25:35;;;;;;;0.47;0.43;;;;;;;23.24;29.25;100453.22;4387589;32;33747;-78
2022/07/17 08:28:06;;;;;;;0.40;0.40;;;;;;;23.32;28.47;100464.28;4387618;32;33812;-78
2022/07/17 08:30:37;;;;;;;1.25;0.35;;;;;;;23.07;28.68;100462.91;4387834;32;33897;-79
2022/07/17 08:33:07;;;;;;;1.35;0.50;;;;;;;23.33;27.74;100458.03;4391638;32;34868;-77
2022/07/17 08:35:39;;;;;;;1.50;0.47;;;;;;;23.31;28.14;100466.03;4388312;32;33711;-77
2022/07/17 08:38:08;;;;;;;1.25;0.50;;;;;;;23.22;27.80;100453.31;4403698;32;34667;-78
2022/07/17 08:40:47;;;;;;;0.40;0.30;;;;;;;23.72;28.03;100449.66;4399775;32;33742;-78
2022/07/17 08:43:23;;;;;;;0.30;0.30;;;;;;;23.59;27.18;100451.31;4389048;32;35140;-79
2022/07/17 08:45:52;;;;;;;0.80;0.43;;;;;;;23.41;27.73;100466.41;4390651;32;33467;-78
2022/07/17 08:48:24;;;;;;;0.43;0.43;;;;;;;23.68;27.08;100448.16;4389652;32;33868;-79
2022/07/17 08:50:55;;;;;;;0.65;0.40;;;;;;;23.78;27.32;100454.66;4374464;32;34043;-79
2022/07/17 08:53:27;;;;;;;;;;;;;;;23.71;26.98;100458.56;4374785;32;33537;-79
2022/07/17 08:55:55;;;;;;;2.37;0.90;;;;;;;23.87;26.66;100452.44;4374148;32;34202;-77
2022/07/17 08:58:31;;;;;;;0.55;0.40;;;;;;;23.70;26.62;100464.78;4374348;32;33923;-78
2022/07/17 09:01:00;;;;;;;1.73;0.77;;;;;;;23.54;27.15;100454.22;4374383;32;34321;-78
2022/07/17 09:03:37;;;;;;;0.47;0.40;;;;;;;23.66;27.60;100452.69;4379099;32;33853;-78
2022/07/17 09:06:19;;;;;;;0.62;0.30;;;;;;;23.82;27.52;100453.56;4373580;32;33700;-79
2022/07/17 09:09:03;;;;;;;0.77;0.77;;;;;;;24.19;27.44;100447.97;4374256;32;33880;-78
2022/07/17 09:11:43;;;;;;;1.10;0.50;;;;;;;24.25;28.02;100453.75;4374094;32;34655;-79
2022/07/17 09:14:20;;;;;;;0.40;0.32;;;;;;;24.97;25.97;100443.34;4373937;32;33751;-78
2022/07/17 09:16:51;;;;;;;0.70;0.30;;;;;;;24.85;27.54;100439.63;4373487;32;33661;-79
2022/07/17 09:19:33;;;;;;;0.40;0.40;;;;;;;24.88;27.32;100458.00;4374015;32;34185;-78
2022/07/17 09:22:14;;;;;;;0.85;0.30;;;;;;;24.87;24.92;100452.81;4378417;32;34951;-77
2022/07/17 09:24:50;;;;;;;1.65;0.40;;;;;;;24.63;25.55;100445.38;4373981;32;34161;-79
2022/07/17 09:27:31;;;;;;;0.82;0.40;;;;;;;24.84;25.66;100439.72;4373531;32;33679;-79
2022/07/17 09:30:07;;;;;;;0.57;0.52;;;;;;;24.53;25.66;100438.06;4360453;32;33157;-78
2022/07/17 09:32:38;;;;;;;1.20;0.50;;;;;;;24.48;26.25;100441.00;4373692;32;33565;-78
2022/07/17 09:35:10;;;;;;;0.40;0.40;;;;;;;24.25;25.38;100434.34;4374200;32;33875;-79
2022/07/17 09:37:39;;;;;;;0.93;0.40;;;;;;;24.43;25.24;100445.69;4378356;32;33777;-78
2022/07/17 09:40:11;;;;;;;0.82;0.40;;;;;;;24.33;25.52;100442.72;4378124;32;34573;-79
2022/07/17 09:43:00;;;;;;;0.68;0.50;;;;;;;24.34;26.71;100431.16;4388591;32;33610;-78
2022/07/17 09:45:33;;;;;;;1.00;0.47;;;;;;;24.83;25.70;100427.41;4388478;32;34133;-79
2022/07/17 09:48:02;;;;;;;0.73;0.35;;;;;;;24.84;25.49;100431.75;4382502;32;34212;-78
2022/07/17 09:50:36;;;;;;;0.95;0.60;;;;;;;25.11;25.29;100427.41;4373427;32;34653;-79
2022/07/17 09:53:06;;;;;;;0.60;0.45;;;;;;;24.95;25.14;100433.75;4377412;32;33810;-79
2022/07/17 09:55:38;;;;;;;0.25;0.22;;;;;;;24.97;25.37;100423.91;4392077;32;34886;-79
2022/07/17 09:58:21;;;;;;;0.82;0.30;;;;;;;24.82;25.24;100420.41;4388823;32;33593;-79
2022/07/17 10:00:51;;;;;;;0.98;0.50;;;;;;;24.95;26.03;100423.16;4388460;32;33670;-78
2022/07/17 10:03:21;;;;;;;0.32;0.30;;;;;;;24.95;25.02;100439.91;4388836;32;33945;-80
2022/07/17 10:05:50;;;;;;;0.30;0.30;;;;;;;25.15;25.13;100433.37;4388960;32;34870;-80
2022/07/17 10:08:20;;;;;;;1.65;0.57;;;;;;;24.90;25.13;100420.78;4393349;32;33250;-80
2022/07/17 10:10:49;;;;;;;;;;;;;;;25.18;24.47;100419.06;4380263;32;34345;-77
2022/07/17 10:13:24;;;;;;;0.73;0.60;;;;;;;24.88;24.25;100423.50;4373485;32;34071;-79
2022/07/17 10:15:55;;;;;;;0.82;0.40;;;;;;;24.88;23.31;100426.16;4373368;32;34054;-78
2022/07/17 10:18:35;;;;;;;1.00;0.90;;;;;;;25.36;25.10;100430.37;4374298;32;32776;-78
2022/07/17 10:21:26;;;;;;;1.30;0.70;;;;;;;25.40;22.71;100400.88;4374614;32;33761;-79
2022/07/17 10:24:17;;;;;;;0.82;0.40;;;;;;;25.29;23.50;100427.25;4374324;32;33783;-79
2022/07/17 10:26:49;;;;;;;1.75;0.50;;;;;;;25.49;23.04;100421.53;4378748;32;34838;-78
2022/07/17 10:29:38;;;;;;;0.37;0.30;;;;;;;25.57;23.56;100420.19;4378256;32;34257;-78
2022/07/17 10:32:21;;;;;;;0.40;0.40;;;;;;;25.64;23.97;100414.38;4373743;32;34700;-78
2022/07/17 10:34:54;;;;;;;1.33;0.50;;;;;;;25.83;23.43;100408.72;4373411;32;34709;-78
2022/07/17 10:37:32;;;;;;;0.75;0.25;;;;;;;25.94;23.30;100408.03;4373374;32;33914;-80
2022/07/17 10:40:06;;;;;;;0.57;0.47;;;;;;;25.68;23.55;100412.38;4376901;32;32714;-78
2022/07/17 10:42:48;;;;;;;3.25;0.90;;;;;;;25.75;24.01;100408.34;4388230;32;34023;-78
2022/07/17 10:45:19;;;;;;;1.42;0.60;;;;;;;25.76;23.06;100420.72;4388949;32;34894;-80
2022/07/17 10:47:54;;;;;;;1.00;0.47;;;;;;;25.83;23.80;100411.38;4393336;32;34012;-81
2022/07/17 10:50:30;;;;;;;1.23;0.43;;;;;;;26.03;23.09;100404.78;4388863;32;33451;-79
2022/07/17 10:53:01;;;;;;;0.52;0.40;;;;;;;25.87;22.78;100412.06;4379642;32;34013;-78
2022/07/17 10:55:30;;;;;;;0.30;0.30;;;;;;;25.83;22.83;100419.34;4388602;32;33528;-79
2022/07/17 10:57:59;;;;;;;0.40;0.30;;;;;;;26.07;22.38;100416.94;4387982;32;34767;-79
2022/07/17 11:00:30;;;;;;;0.52;0.30;;;;;;;26.32;23.15;100410.81;4392950;32;34299;-79
2022/07/17 11:03:15;;;;;;;0.43;0.40;;;;;;;26.46;21.02;100406.34;4392883;32;34495;-80
2022/07/17 11:05:43;;;;;;;1.42;0.50;;;;;;;26.14;21.19;100401.38;4389619;32;33943;-79
2022/07/17 11:08:14;;;;;;;0.32;0.22;;;;;;;26.69;21.58;100395.00;4389494;32;33819;-78
2022/07/17 11:10:43;;;;;;;0.60;0.40;;;;;;;26.43;21.66;100404.75;4389655;32;32966;-79
2022/07/17 11:13:14;;;;;;;0.20;0.20;;;;;;;26.65;21.97;100406.84;4389143;32;34594;-80
2022/07/17 11:15:47;;;;;;;2.47;0.43;;;;;;;26.57;21.29;100398.53;4393033;32;34028;-80
2022/07/17 11:18:20;;;;;;;0.25;0.20;;;;;;;26.34;22.75;100390.28;4390280;32;33270;-79
2022/07/17 11:20:52;;;;;;;2.28;0.30;;;;;;;26.63;21.79;100386.59;4389231;32;33554;-78
2022/07/17 11:23:21;;;;;;;;;;;;;;;26.83;22.39;100379.91;4388584;32;33828;-80
2022/07/17 11:25:58;;;;;;;0.60;0.40;;;;;;;27.22;20.72;100381.56;4388149;32;33846;-80
2022/07/17 11:28:33;;;;;;;0.50;0.30;;;;;;;27.11;21.44;100384.09;4387905;32;34803;-79
2022/07/17 11:31:05;;;;;;;2.40;0.40;;;;;;;26.85;21.00;100378.84;4393007;32;33077;-79
2022/07/17 11:33:36;;;;;;;0.30;0.30;;;;;;;27.15;20.40;100374.94;4380314;32;34003;-78
2022/07/17 11:36:06;;;;;;;0.70;0.30;;;;;;;27.23;20.49;100375.28;4372873;32;33095;-79
2022/07/17 11:38:35;;;;;;;0.75;0.45;;;;;;;26.99;19.81;100380.50;4373085;32;34068;-78
2022/07/17 11:41:07;;;;;;;0.50;0.40;;;;;;;26.91;20.30;100374.88;4382990;32;33530;-79
2022/07/17 11:43:40;;;;;;;1.27;0.30;;;;;;;26.96;20.90;100373.56;4387372;32;33791;-80
2022/07/17 11:46:12;;;;;;;1.55;0.62;;;;;;;27.61;19.90;100368.97;4393018;32;33466;-79
2022/07/17 11:48:44;;;;;;;0.47;0.30;;;;;;;27.65;20.04;100371.31;4387855;32;34096;-78
2022/07/17 11:51:14;;;;;;;1.30;0.40;;;;;;;28.01;19.47;100363.38;4388825;32;33653;-79